Time;durP1;ratioP1;P1;durP2;ratioP2;P2;SDS_P1;SDS_P2;PMS_P1;PMS_P2;Temp;Humidity;BMP_temperature;BMP_pressure;BME280_temperature;BME280_humidity;BME280_pressure;Samples;Min_cycle;Max_cycle;Signal;HPM_P1;HPM_P2
2022/09/17 00:00:43;;;;;;;9.10;1.25;;;10.90;30.00;;;;;;5031950;28;20017;-72
2022/09/17 00:03:09;;;;;;;8.52;1.38;;;10.80;31.20;;;;;;5032136;28;20045;-72
2022/09/17 00:05:39;;;;;;;7.90;0.82;;;10.60;38.90;;;;;;5032120;28;20061;-72
2022/09/17 00:08:06;;;;;;;8.15;1.23;;;10.50;41.20;;;;;;5034964;28;20100;-72
2022/09/17 00:10:36;;;;;;;11.55;1.10;;;10.30;49.80;;;;;;5041657;28;20631;-72
2022/09/17 00:13:02;;;;;;;;;;;10.20;56.40;;;;;;5032696;28;20058;-72
2022/09/17 00:15:28;;;;;;;5.05;1.25;;;10.30;56.40;;;;;;5031583;28;19915;-72
2022/09/17 00:17:56;;;;;;;6.60;1.25;;;10.70;73.90;;;;;;5031722;28;20026;-73
2022/09/17 00:20:22;;;;;;;5.15;1.23;;;10.90;96.70;;;;;;5031496;28;20013;-73
2022/09/17 00:22:48;;;;;;;2.70;0.50;;;10.90;98.00;;;;;;5031711;28;20017;-72
2022/09/17 00:25:14;;;;;;;8.25;1.33;;;10.80;95.50;;;;;;5031647;28;20056;-72
2022/09/17 00:27:40;;;;;;;4.20;1.10;;;10.70;95.20;;;;;;5031592;28;20025;-72
2022/09/17 00:30:06;;;;;;;9.30;0.93;;;10.70;94.40;;;;;;5031879;28;20456;-72
2022/09/17 00:32:32;;;;;;;9.05;1.58;;;10.80;99.20;;;;;;5032156;28;20061;-72
2022/09/17 00:34:57;;;;;;;4.97;0.63;;;11.10;93.00;;;;;;5031387;28;20049;-72
2022/09/17 00:37:23;;;;;;;3.30;0.65;;;10.90;93.30;;;;;;5031850;28;20029;-73
2022/09/17 00:39:49;;;;;;;1.35;0.32;;;10.90;82.50;;;;;;5031685;28;20140;-72
2022/09/17 00:42:16;;;;;;;4.72;1.05;;;10.90;71.20;;;;;;5031617;28;20052;-73
2022/09/17 00:45:02;;;;;;;4.55;0.50;;;10.80;72.50;;;;;;5031633;28;20025;-73
2022/09/17 00:47:33;;;;;;;2.78;0.50;;;10.80;64.50;;;;;;5031982;28;20029;-73
2022/09/17 00:50:09;;;;;;;2.97;0.32;;;10.90;72.20;;;;;;5031641;28;20029;-72
2022/09/17 00:52:45;;;;;;;5.30;1.50;;;11.00;78.50;;;;;;5031483;28;20633;-72
2022/09/17 00:55:25;;;;;;;2.55;0.55;;;11.00;87.10;;;;;;5031504;28;20035;-72
2022/09/17 00:57:53;;;;;;;6.22;0.60;;;11.00;84.40;;;;;;5031356;28;20032;-72
2022/09/17 01:00:20;;;;;;;3.30;0.57;;;10.90;90.00;;;;;;5030270;28;20130;-72
2022/09/17 01:02:46;;;;;;;3.85;0.45;;;10.90;82.30;;;;;;5031272;28;20037;-72
2022/09/17 01:05:12;;;;;;;1.73;0.20;;;10.80;76.90;;;;;;5031141;28;20033;-72
2022/09/17 01:07:47;;;;;;;2.13;0.28;;;10.70;68.20;;;;;;5031512;28;20013;-72
2022/09/17 01:10:34;;;;;;;2.67;0.40;;;10.60;76.10;;;;;;5042091;28;20526;-72
2022/09/17 01:13:02;;;;;;;4.38;0.40;;;10.40;85.50;;;;;;5051114;28;20021;-72
2022/09/17 01:15:50;;;;;;;5.75;1.02;;;10.20;95.30;;;;;;5051081;28;20036;-72
2022/09/17 01:18:30;;;;;;;5.97;0.70;;;10.00;99.90;;;;;;5051191;28;20511;-72
2022/09/17 01:21:11;;;;;;;7.80;0.90;;;9.90;99.90;;;;;;5051107;28;20021;-72
2022/09/17 01:24:04;;;;;;;5.72;0.80;;;10.00;99.90;;;;;;5050958;28;20032;-72
2022/09/17 01:27:15;;;;;;;6.28;0.90;;;10.20;99.90;;;;;;5049748;28;20112;-72
2022/09/17 01:30:37;;;;;;;7.63;1.40;;;10.60;96.40;;;;;;5049048;28;20132;-72
2022/09/17 01:33:14;;;;;;;4.55;0.52;;;10.80;95.90;;;;;;5032229;28;20034;-72
2022/09/17 01:35:40;;;;;;;3.92;0.40;;;11.10;73.30;;;;;;5032525;28;20040;-72
2022/09/17 01:38:10;;;;;;;3.20;0.73;;;11.10;66.70;;;;;;5021215;28;20124;-72
2022/09/17 01:41:01;;;;;;;12.95;0.77;;;11.00;95.30;;;;;;5015274;28;20048;-72
2022/09/17 01:43:32;;;;;;;;;;;10.80;99.20;;;;;;5015603;28;20380;-74
2022/09/17 01:46:17;;;;;;;5.28;0.80;;;10.60;99.90;;;;;;5018797;28;20501;-73
2022/09/17 01:48:47;;;;;;;6.50;0.88;;;10.60;99.90;;;;;;5015149;28;20022;-73
2022/09/17 01:51:21;;;;;;;6.97;0.60;;;10.60;99.90;;;;;;5014861;28;20022;-73
2022/09/17 01:53:59;;;;;;;7.50;1.35;;;10.50;99.90;;;;;;5014707;28;20491;-73
2022/09/17 01:56:32;;;;;;;4.57;0.80;;;10.50;99.90;;;;;;5014692;28;20057;-73
2022/09/17 01:59:10;;;;;;;7.10;0.60;;;10.60;99.90;;;;;;5014710;28;20018;-73
2022/09/17 02:01:40;;;;;;;9.55;1.27;;;10.70;99.90;;;;;;5014764;28;20021;-73
2022/09/17 02:04:22;;;;;;;6.22;1.08;;;10.60;99.90;;;;;;5018800;28;20025;-73
2022/09/17 02:06:55;;;;;;;13.35;1.23;;;10.60;99.90;;;;;;5014491;28;20109;-73
2022/09/17 02:09:27;;;;;;;5.35;1.00;;;10.40;99.90;;;;;;5014653;28;20042;-72
2022/09/17 02:11:57;;;;;;;9.68;1.10;;;10.20;99.90;;;;;;5014603;28;20022;-73
2022/09/17 02:14:36;;;;;;;7.70;1.00;;;10.10;99.90;;;;;;5014473;28;20037;-73
2022/09/17 02:17:12;;;;;;;9.18;1.33;;;10.20;99.90;;;;;;5014389;28;20024;-73
2022/09/17 02:19:39;;;;;;;6.18;0.73;;;10.30;99.90;;;;;;5022123;28;20083;-72
2022/09/17 02:22:17;;;;;;;6.00;1.05;;;10.30;99.90;;;;;;5033952;28;20018;-72
2022/09/17 02:24:51;;;;;;;5.85;0.60;;;10.40;97.20;;;;;;5034083;28;20117;-72
2022/09/17 02:27:36;;;;;;;11.50;1.83;;;10.50;92.40;;;;;;5033961;28;20033;-73
2022/09/17 02:30:02;;;;;;;7.55;1.02;;;10.50;92.70;;;;;;5033875;28;20045;-72
2022/09/17 02:32:28;;;;;;;8.23;1.27;;;10.60;80.30;;;;;;5027867;28;20487;-73
2022/09/17 02:34:53;;;;;;;9.43;0.90;;;10.50;82.70;;;;;;5014176;28;20089;-72
2022/09/17 02:37:19;;;;;;;7.10;1.38;;;10.40;87.10;;;;;;5013908;28;20018;-72
2022/09/17 02:39:45;;;;;;;9.32;0.98;;;10.30;77.10;;;;;;5027151;28;20518;-72
2022/09/17 02:42:32;;;;;;;9.60;1.42;;;10.30;77.60;;;;;;5032815;28;20488;-72
2022/09/17 02:45:14;;;;;;;9.55;1.85;;;10.40;71.60;;;;;;5033455;28;20017;-73
2022/09/17 02:48:16;;;;;;;6.53;1.05;;;10.90;81.60;;;;;;5033574;28;20068;-73
2022/09/17 02:50:52;;;;;;;4.40;0.75;;;11.10;78.80;;;;;;5033570;28;20041;-73
2022/09/17 02:53:38;;;;;;;4.40;0.80;;;11.10;67.70;;;;;;5033541;28;20017;-73
2022/09/17 02:56:38;;;;;;;6.82;1.58;;;10.90;78.40;;;;;;5033573;28;20080;-73
2022/09/17 02:59:11;;;;;;;6.13;0.80;;;10.80;68.60;;;;;;5033430;28;20036;-73
2022/09/17 03:02:04;;;;;;;4.53;1.55;;;10.70;65.40;;;;;;5033302;28;20021;-73
2022/09/17 03:04:32;;;;;;;14.30;1.60;;;10.70;66.20;;;;;;5033243;28;20030;-72
2022/09/17 03:06:58;;;;;;;9.82;1.02;;;10.60;68.60;;;;;;5033041;28;20648;-72
2022/09/17 03:09:24;;;;;;;8.80;0.90;;;10.70;72.40;;;;;;5029134;28;20021;-72
2022/09/17 03:11:50;;;;;;;10.52;2.92;;;10.50;84.00;;;;;;5013305;28;20030;-72
2022/09/17 03:14:15;;;;;;;8.05;1.23;;;10.30;90.60;;;;;;5013184;28;20026;-72
2022/09/17 03:16:41;;;;;;;12.00;1.15;;;10.30;88.30;;;;;;5013343;28;20022;-72
2022/09/17 03:19:07;;;;;;;7.35;1.13;;;10.30;72.20;;;;;;5013107;28;20022;-72
2022/09/17 03:21:32;;;;;;;7.90;0.98;;;10.50;53.70;;;;;;5013108;28;20105;-72
2022/09/17 03:23:59;;;;;;;7.93;0.93;;;10.80;55.90;;;;;;5012961;28;20033;-72
2022/09/17 03:26:25;;;;;;;6.88;0.70;;;10.70;55.70;;;;;;5033171;28;20056;-72
2022/09/17 03:28:51;;;;;;;7.88;1.25;;;10.60;61.20;;;;;;5032665;28;20025;-72
2022/09/17 03:31:16;;;;;;;4.78;0.82;;;10.40;68.00;;;;;;5032723;28;20026;-72
2022/09/17 03:33:42;;;;;;;5.75;0.55;;;10.30;73.70;;;;;;5031238;28;20088;-72
2022/09/17 03:36:07;;;;;;;6.47;0.88;;;10.40;61.90;;;;;;5032854;28;20049;-72
2022/09/17 03:38:33;;;;;;;4.25;0.60;;;10.40;63.70;;;;;;5032436;28;20021;-73
2022/09/17 03:41:05;;;;;;;2.40;0.35;;;10.40;60.70;;;;;;5032519;28;20021;-72
2022/09/17 03:43:31;;;;;;;4.60;0.43;;;10.30;59.00;;;;;;5032652;28;20025;-73
2022/09/17 03:45:57;;;;;;;10.00;0.80;;;10.30;65.90;;;;;;5032532;28;20033;-72
2022/09/17 03:48:22;;;;;;;8.27;0.90;;;10.50;72.00;;;;;;5032332;28;20018;-72
2022/09/17 03:50:48;;;;;;;3.03;0.40;;;10.60;84.80;;;;;;5032473;28;20025;-72
2022/09/17 03:53:18;;;;;;;6.68;0.55;;;10.60;53.30;;;;;;5032237;28;20057;-72
2022/09/17 03:55:44;;;;;;;2.85;0.40;;;10.40;49.00;;;;;;5031552;28;20060;-72
2022/09/17 03:58:10;;;;;;;4.45;0.60;;;10.30;39.80;;;;;;5032176;28;20029;-72
2022/09/17 04:00:38;;;;;;;10.18;1.50;;;10.40;40.30;;;;;;5032019;28;20025;-72
2022/09/17 04:03:04;;;;;;;2.38;0.50;;;10.40;49.00;;;;;;5036227;28;20056;-72
2022/09/17 04:05:30;;;;;;;5.82;1.20;;;10.40;46.80;;;;;;5051919;28;20071;-72
2022/09/17 04:07:56;;;;;;;3.30;0.50;;;10.40;47.40;;;;;;5052016;28;20099;-72
2022/09/17 04:10:22;;;;;;;3.05;0.55;;;10.40;38.20;;;;;;5051939;28;20025;-72
2022/09/17 04:12:47;;;;;;;5.50;0.57;;;10.40;33.40;;;;;;5052390;28;20017;-72
2022/09/17 04:15:13;;;;;;;3.97;1.20;;;10.80;27.70;;;;;;5051638;28;20414;-72
2022/09/17 04:17:39;;;;;;;2.80;0.80;;;10.90;29.90;;;;;;5051906;28;20032;-72
2022/09/17 04:20:06;;;;;;;7.57;1.08;;;10.80;31.30;;;;;;5051693;28;20031;-72
2022/09/17 04:22:31;;;;;;;5.60;1.42;;;10.70;41.10;;;;;;5051717;28;20021;-72
2022/09/17 04:24:57;;;;;;;7.30;1.02;;;10.50;49.40;;;;;;5051694;28;20513;-72
2022/09/17 04:27:23;;;;;;;9.68;1.10;;;10.30;55.20;;;;;;5051649;28;20021;-72
2022/09/17 04:29:48;;;;;;;11.15;1.58;;;10.10;61.70;;;;;;5051589;28;20483;-72
2022/09/17 04:32:14;;;;;;;10.00;1.30;;;9.90;75.10;;;;;;5046183;28;20022;-72
2022/09/17 04:34:40;;;;;;;10.40;1.13;;;9.70;86.30;;;;;;5030962;28;20454;-72
2022/09/17 04:37:05;;;;;;;6.38;1.13;;;9.70;88.10;;;;;;5031512;28;20029;-72
2022/09/17 04:39:31;;;;;;;8.45;1.40;;;9.70;87.20;;;;;;5031720;28;20071;-72
2022/09/17 04:41:56;;;;;;;1.42;0.50;;;9.70;87.90;;;;;;5031374;28;20555;-72
2022/09/17 04:44:22;;;;;;;8.82;0.82;;;9.90;75.30;;;;;;5031461;28;20036;-72
2022/09/17 04:46:47;;;;;;;9.50;1.20;;;10.00;67.70;;;;;;5031581;28;20051;-72
2022/09/17 04:49:13;;;;;;;3.00;0.52;;;9.90;69.70;;;;;;5031537;28;20159;-72
2022/09/17 04:51:39;;;;;;;5.60;0.85;;;10.00;61.80;;;;;;5031435;28;20025;-72
2022/09/17 04:54:06;;;;;;;7.00;1.08;;;9.90;68.40;;;;;;5031435;28;20032;-72
2022/09/17 04:56:32;;;;;;;5.60;0.70;;;9.80;68.00;;;;;;5031343;28;20067;-72
2022/09/17 04:58:58;;;;;;;11.32;1.10;;;9.90;67.80;;;;;;5031362;28;20460;-72
2022/09/17 05:01:23;;;;;;;8.48;1.35;;;10.00;68.20;;;;;;5031305;28;20475;-72
2022/09/17 05:03:49;;;;;;;7.45;1.50;;;10.10;67.40;;;;;;5031364;28;20109;-72
2022/09/17 05:06:14;;;;;;;5.88;0.93;;;10.20;59.30;;;;;;5033241;28;20021;-72
2022/09/17 05:08:40;;;;;;;2.55;0.28;;;10.60;49.10;;;;;;5035358;28;20067;-72
2022/09/17 05:11:05;;;;;;;6.93;0.77;;;10.70;50.90;;;;;;5035180;28;20022;-73
2022/09/17 05:13:31;;;;;;;2.50;0.28;;;10.40;89.50;;;;;;5035313;28;20540;-72
2022/09/17 05:15:57;;;;;;;4.03;0.43;;;10.20;97.00;;;;;;5034935;28;20029;-72
2022/09/17 05:18:23;;;;;;;1.30;0.50;;;10.30;89.40;;;;;;5035305;28;20167;-73
2022/09/17 05:20:48;;;;;;;2.05;0.30;;;10.20;90.40;;;;;;5035168;28;20028;-73
2022/09/17 05:23:14;;;;;;;2.60;0.25;;;10.20;73.00;;;;;;5035104;28;20658;-72
2022/09/17 05:25:39;;;;;;;2.72;0.57;;;10.00;75.80;;;;;;5035087;28;20025;-72
2022/09/17 05:28:05;;;;;;;4.32;0.45;;;9.90;86.80;;;;;;5035199;28;20026;-72
2022/09/17 05:30:31;;;;;;;4.78;0.93;;;9.70;90.40;;;;;;5035007;28;20076;-72
2022/09/17 05:33:02;;;;;;;3.00;0.50;;;9.70;90.60;;;;;;5034905;28;20111;-72
2022/09/17 05:35:28;;;;;;;2.08;0.30;;;9.80;81.50;;;;;;5016916;28;20052;-73
2022/09/17 05:38:01;;;;;;;4.25;0.30;;;10.00;75.50;;;;;;5015003;28;20030;-72
2022/09/17 05:40:27;;;;;;;1.20;0.30;;;10.00;73.20;;;;;;5014777;28;20080;-72
2022/09/17 05:43:01;;;;;;;5.55;0.77;;;10.30;71.60;;;;;;5015071;28;20100;-72
2022/09/17 05:45:28;;;;;;;4.00;0.77;;;10.60;63.70;;;;;;5014879;28;20026;-73
2022/09/17 05:47:57;;;;;;;3.17;0.30;;;10.70;54.60;;;;;;5034104;28;20030;-72
2022/09/17 05:50:23;;;;;;;3.63;0.77;;;10.70;47.60;;;;;;5034371;28;20028;-73
2022/09/17 05:52:50;;;;;;;2.35;0.32;;;10.60;45.30;;;;;;5034515;28;20108;-73
2022/09/17 05:55:17;;;;;;;2.70;0.60;;;10.40;52.60;;;;;;5034474;28;20048;-73
2022/09/17 05:57:42;;;;;;;5.63;0.38;;;10.30;56.90;;;;;;5034536;28;20094;-73
2022/09/17 06:00:10;;;;;;;1.67;0.35;;;10.30;56.30;;;;;;5034497;28;20104;-73
2022/09/17 06:02:35;;;;;;;2.03;0.60;;;10.60;49.60;;;;;;5034301;28;20026;-73
2022/09/17 06:05:02;;;;;;;4.85;0.77;;;11.00;52.20;;;;;;5034318;28;20079;-72
2022/09/17 06:07:28;;;;;;;3.83;0.55;;;11.30;50.50;;;;;;5034495;28;20017;-72
2022/09/17 06:09:53;;;;;;;1.85;0.30;;;11.30;35.10;;;;;;5033941;28;20017;-73
2022/09/17 06:12:19;;;;;;;6.63;0.40;;;11.30;29.90;;;;;;5033922;28;20064;-73
2022/09/17 06:14:45;;;;;;;2.83;0.40;;;11.10;30.00;;;;;;5033989;28;20088;-73
2022/09/17 06:17:10;;;;;;;5.13;0.60;;;10.80;27.30;;;;;;5033208;28;20022;-73
2022/09/17 06:19:36;;;;;;;4.35;0.55;;;10.70;35.60;;;;;;5017094;28;20037;-72
2022/09/17 06:22:02;;;;;;;1.63;0.40;;;10.60;38.20;;;;;;5014281;28;20424;-72
2022/09/17 06:24:27;;;;;;;4.40;0.65;;;10.50;38.30;;;;;;5034279;28;20089;-73
2022/09/17 06:26:53;;;;;;;3.60;0.82;;;10.60;36.30;;;;;;5019372;28;20038;-73
2022/09/17 06:29:19;;;;;;;3.08;0.50;;;10.60;40.60;;;;;;5014077;28;20049;-72
2022/09/17 06:31:47;;;;;;;5.47;0.63;;;10.90;37.40;;;;;;5014108;28;20052;-72
2022/09/17 06:34:13;;;;;;;4.40;0.52;;;11.40;36.50;;;;;;5013599;28;20137;-72
2022/09/17 06:36:38;;;;;;;4.93;0.50;;;11.90;33.30;;;;;;5014055;28;20101;-72
2022/09/17 06:39:05;;;;;;;4.07;0.38;;;11.80;36.80;;;;;;5028220;28;20108;-73
2022/09/17 06:41:31;;;;;;;2.50;0.50;;;11.60;51.50;;;;;;5033688;28;20038;-73
2022/09/17 06:43:56;;;;;;;9.93;0.75;;;11.60;52.00;;;;;;5033606;28;20028;-73
2022/09/17 06:46:22;;;;;;;5.88;0.90;;;11.60;41.20;;;;;;5033521;28;20029;-73
2022/09/17 06:48:47;;;;;;;2.13;0.47;;;11.60;44.30;;;;;;5033571;28;20048;-73
2022/09/17 06:51:13;;;;;;;1.30;0.10;;;11.40;35.10;;;;;;5033652;28;20017;-73
2022/09/17 06:53:39;;;;;;;1.92;0.55;;;11.10;40.90;;;;;;5033533;28;20385;-73
2022/09/17 06:56:07;;;;;;;3.92;0.45;;;11.00;56.60;;;;;;5033368;28;20041;-73
2022/09/17 06:58:36;;;;;;;1.50;0.30;;;10.90;64.50;;;;;;5033340;28;20025;-73
2022/09/17 07:01:02;;;;;;;3.17;0.52;;;10.80;84.30;;;;;;5033490;28;20029;-74
2022/09/17 07:03:29;;;;;;;3.28;0.32;;;10.70;95.20;;;;;;5033092;28;20025;-73
2022/09/17 07:05:55;;;;;;;10.80;1.13;;;10.70;94.20;;;;;;5032922;28;20040;-73
2022/09/17 07:08:21;;;;;;;2.72;0.60;;;10.80;92.30;;;;;;5033161;28;20037;-73
2022/09/17 07:10:47;;;;;;;2.15;0.90;;;11.50;87.50;;;;;;5033129;28;20025;-73
2022/09/17 07:13:13;;;;;;;2.58;0.30;;;11.60;70.70;;;;;;5033200;28;20017;-73
2022/09/17 07:15:38;;;;;;;2.38;0.32;;;11.50;75.80;;;;;;5032956;28;20029;-73
2022/09/17 07:18:08;;;;;;;8.38;1.58;;;11.60;73.90;;;;;;5032762;28;20091;-73
2022/09/17 07:20:34;;;;;;;5.50;0.77;;;11.80;72.40;;;;;;5032831;28;20022;-73
2022/09/17 07:23:00;;;;;;;6.10;0.60;;;13.70;48.80;;;;;;5032504;28;20409;-73
2022/09/17 07:25:26;;;;;;;2.13;0.45;;;18.50;1.00;;;;;;5032305;28;20379;-73
2022/09/17 07:27:52;;;;;;;4.40;0.80;;;21.50;1.00;;;;;;5032575;28;20030;-73
2022/09/17 07:30:19;;;;;;;8.73;0.88;;;23.50;1.00;;;;;;5040728;28;20018;-73
2022/09/17 07:32:45;;;;;;;3.17;0.68;;;25.60;1.00;;;;;;5032213;28;20737;-73
2022/09/17 07:35:10;;;;;;;5.22;0.55;;;27.80;1.00;;;;;;5031221;28;20491;-73
2022/09/17 07:37:36;;;;;;;5.97;1.15;;;29.50;1.00;;;;;;5032431;28;20022;-73
2022/09/17 07:40:05;;;;;;;9.68;1.17;;;30.00;1.00;;;;;;5032606;28;20021;-73
2022/09/17 07:42:31;;;;;;;2.77;0.13;;;31.40;1.00;;;;;;5032803;28;20536;-73
2022/09/17 07:44:57;;;;;;;0.93;0.30;;;26.60;1.00;;;;;;5030496;28;20250;-73
2022/09/17 07:47:24;;;;;;;0.93;0.20;;;18.90;1.00;;;;;;5032620;28;20025;-73
2022/09/17 07:49:49;;;;;;;2.03;0.20;;;16.50;1.00;;;;;;5032251;28;20353;-73
2022/09/17 07:52:15;;;;;;;2.85;0.30;;;15.90;1.00;;;;;;5030301;28;20041;-73
2022/09/17 07:54:41;;;;;;;2.67;0.55;;;15.00;1.00;;;;;;5025203;28;20037;-73
2022/09/17 07:57:07;;;;;;;3.80;0.52;;;14.30;1.00;;;;;;5016110;28;20022;-73
2022/09/17 07:59:32;;;;;;;5.72;0.60;;;13.60;4.90;;;;;;5012229;28;20053;-74
2022/09/17 08:01:58;;;;;;;5.47;0.70;;;13.50;12.40;;;;;;5012327;28;20022;-73
2022/09/17 08:04:24;;;;;;;6.57;1.00;;;13.70;9.50;;;;;;5022927;28;20053;-73
2022/09/17 08:06:49;;;;;;;3.35;0.68;;;14.10;10.20;;;;;;5031802;28;20040;-73
2022/09/17 08:09:17;;;;;;;5.00;0.80;;;18.20;1.00;;;;;;5044990;28;20147;-74
2022/09/17 08:11:43;;;;;;;9.32;0.90;;;23.60;1.00;;;;;;5028992;28;21309;-74
2022/09/17 08:14:14;;;;;;;7.00;0.90;;;26.70;1.00;;;;;;5011789;28;20029;-73
2022/09/17 08:16:40;;;;;;;6.25;1.00;;;29.60;1.00;;;;;;5011961;28;20580;-74
2022/09/17 08:19:06;;;;;;;7.35;0.60;;;30.90;1.00;;;;;;5011915;28;20508;-73
2022/09/17 08:21:31;;;;;;;10.20;1.10;;;31.10;1.00;;;;;;5022872;28;20032;-73
2022/09/17 08:23:57;;;;;;;8.45;0.80;;;30.00;1.00;;;;;;5031801;28;20540;-73
2022/09/17 08:26:24;;;;;;;11.73;1.63;;;25.10;1.00;;;;;;5031589;28;20013;-73
2022/09/17 08:28:55;;;;;;;4.32;0.50;;;21.40;1.00;;;;;;5018956;28;20029;-73
2022/09/17 08:31:22;;;;;;;5.05;0.65;;;17.60;1.00;;;;;;5012322;28;20052;-73
2022/09/17 08:33:48;;;;;;;3.72;0.80;;;16.50;1.00;;;;;;5010847;28;20153;-73
2022/09/17 08:36:16;;;;;;;7.72;0.80;;;16.20;1.00;;;;;;5033595;28;20167;-74
2022/09/17 08:38:42;;;;;;;3.50;0.50;;;16.50;1.00;;;;;;5051611;28;20021;-75
2022/09/17 08:41:22;;;;;;;6.70;0.93;;;23.50;1.00;;;;;;5040452;28;20484;-74
2022/09/17 08:43:54;;;;;;;4.45;0.73;;;26.20;1.00;;;;;;5031682;28;20032;-73
2022/09/17 08:46:20;;;;;;;5.13;0.80;;;27.30;1.00;;;;;;5031324;28;20041;-73
2022/09/17 08:49:09;;;;;;;4.15;0.40;;;28.50;1.00;;;;;;5031556;28;20080;-73
2022/09/17 08:51:58;;;;;;;3.05;0.43;;;27.70;1.00;;;;;;5030681;28;20037;-73
2022/09/17 08:54:59;;;;;;;3.75;0.22;;;27.90;1.00;;;;;;5000877;28;20603;-73
2022/09/17 08:57:40;;;;;;;4.03;0.57;;;28.60;1.00;;;;;;5011191;28;20096;-73
2022/09/17 09:00:15;;;;;;;4.40;0.38;;;28.90;1.00;;;;;;5011648;28;20036;-73
2022/09/17 09:02:55;;;;;;;3.55;0.93;;;24.70;1.00;;;;;;5011924;28;20514;-73
2022/09/17 09:05:29;;;;;;;1.50;0.60;;;22.80;1.00;;;;;;5011588;28;20018;-73
2022/09/17 09:08:04;;;;;;;2.90;0.30;;;18.70;1.00;;;;;;5011738;28;20022;-73
2022/09/17 09:10:47;;;;;;;2.22;0.30;;;19.20;1.00;;;;;;5011558;28;20420;-73
2022/09/17 09:13:16;;;;;;;2.08;0.35;;;23.50;1.00;;;;;;5011696;28;20021;-73
2022/09/17 09:15:57;;;;;;;0.82;0.22;;;23.40;1.00;;;;;;5011466;28;20026;-73
2022/09/17 09:18:25;;;;;;;3.08;0.40;;;25.50;1.00;;;;;;5011472;28;20144;-73
2022/09/17 09:21:00;;;;;;;1.60;0.30;;;24.50;1.00;;;;;;5011463;28;20068;-72
2022/09/17 09:23:28;;;;;;;4.05;0.70;;;25.50;1.00;;;;;;5011294;28;20464;-74
2022/09/17 09:26:14;;;;;;;4.03;0.60;;;25.50;1.00;;;;;;5012444;28;20018;-73
2022/09/17 09:28:58;;;;;;;6.25;0.80;;;25.90;1.00;;;;;;5031107;28;20049;-73
2022/09/17 09:31:53;;;;;;;1.95;0.40;;;23.10;1.00;;;;;;5031024;28;20025;-74
2022/09/17 09:34:19;;;;;;;4.38;0.30;;;17.40;1.00;;;;;;5030610;28;20049;-74
2022/09/17 09:36:45;;;;;;;2.97;0.57;;;15.90;1.00;;;;;;5031254;28;20021;-74
2022/09/17 09:39:24;;;;;;;2.13;0.20;;;15.50;1.00;;;;;;5030934;28;20647;-74
2022/09/17 09:42:01;;;;;;;3.40;0.40;;;15.10;1.00;;;;;;5030941;28;20437;-74
2022/09/17 09:44:26;;;;;;;4.70;0.47;;;15.40;1.00;;;;;;5030968;28;20026;-74
2022/09/17 09:47:17;;;;;;;5.55;0.73;;;16.80;1.00;;;;;;5030941;28;20017;-75
2022/09/17 09:49:43;;;;;;;4.95;0.75;;;22.40;1.00;;;;;;5031209;28;20399;-74
2022/09/17 09:52:33;;;;;;;4.68;0.52;;;23.50;1.00;;;;;;5030811;28;20468;-75
2022/09/17 09:55:17;;;;;;;;;;;25.90;1.00;;;;;;5033440;28;20472;-74
2022/09/17 09:57:48;;;;;;;2.13;0.45;;;25.50;1.00;;;;;;5034148;28;19909;-74
2022/09/17 10:00:25;;;;;;;4.43;0.70;;;20.90;1.00;;;;;;5034330;28;20022;-74
2022/09/17 10:03:21;;;;;;;8.88;1.27;;;19.00;1.00;;;;;;5034235;28;20025;-74
2022/09/17 10:06:05;;;;;;;3.50;0.77;;;20.70;1.00;;;;;;5034177;28;20021;-74
2022/09/17 10:08:33;;;;;;;0.65;0.30;;;16.80;1.00;;;;;;5014308;28;20056;-74
2022/09/17 10:11:08;;;;;;;1.20;0.57;;;17.70;1.00;;;;;;5014564;28;20052;-74
2022/09/17 10:13:35;;;;;;;1.60;0.30;;;18.70;1.00;;;;;;5014413;28;20101;-74
2022/09/17 10:16:20;;;;;;;1.13;0.32;;;16.60;1.00;;;;;;5014362;28;20033;-74
2022/09/17 10:18:48;;;;;;;1.27;0.10;;;15.30;1.00;;;;;;5028542;28;20411;-74
2022/09/17 10:21:31;;;;;;;2.58;0.32;;;14.60;1.00;;;;;;5033712;28;20017;-74
2022/09/17 10:23:57;;;;;;;1.10;0.43;;;14.80;1.00;;;;;;5033917;28;20072;-74
2022/09/17 10:26:27;;;;;;;6.70;0.57;;;18.30;1.00;;;;;;5033963;28;20041;-74
2022/09/17 10:28:55;;;;;;;2.45;0.65;;;17.30;1.00;;;;;;5034074;28;20067;-74
2022/09/17 10:31:22;;;;;;;4.00;0.60;;;16.00;1.00;;;;;;5033826;28;20029;-70
2022/09/17 10:34:01;;;;;;;4.13;0.63;;;15.40;1.00;;;;;;5033266;28;20048;-73
2022/09/17 10:36:42;;;;;;;0.70;0.33;;;16.00;1.00;;;;;;5033499;28;20042;-72
2022/09/17 10:39:33;;;;;;;2.58;0.20;;;15.70;1.00;;;;;;5033910;28;20247;-73
2022/09/17 10:42:12;;;;;;;0.45;0.10;;;14.80;1.00;;;;;;5033670;28;20122;-73
2022/09/17 10:44:56;;;;;;;3.97;0.45;;;14.60;1.00;;;;;;5033746;28;20033;-73
2022/09/17 10:47:27;;;;;;;2.38;0.30;;;15.00;1.00;;;;;;5033799;28;20074;-73
2022/09/17 10:50:00;;;;;;;3.90;0.68;;;15.50;1.00;;;;;;5034020;28;20076;-73
2022/09/17 10:52:30;;;;;;;3.20;0.60;;;15.90;1.00;;;;;;5033787;28;20017;-73
2022/09/17 10:55:04;;;;;;;6.25;0.65;;;16.00;1.00;;;;;;5033500;28;20052;-73
2022/09/17 10:57:42;;;;;;;4.50;1.10;;;15.70;1.00;;;;;;5032720;28;20029;-73
2022/09/17 11:00:19;;;;;;;5.70;0.65;;;15.60;1.00;;;;;;5026173;28;20030;-73
2022/09/17 11:03:22;;;;;;;6.28;0.80;;;16.00;1.00;;;;;;5013357;28;20021;-74
2022/09/17 11:06:14;;;;;;;5.30;0.93;;;16.10;1.00;;;;;;5013388;28;20041;-73
2022/09/17 11:09:04;;;;;;;8.52;1.80;;;16.00;1.00;;;;;;5022395;28;20061;-74
2022/09/17 11:11:37;;;;;;;5.25;1.10;;;16.10;1.00;;;;;;5021485;28;20034;-74
2022/09/17 11:14:05;;;;;;;1.15;0.40;;;15.00;1.00;;;;;;5033103;28;20029;-74
2022/09/17 11:17:05;;;;;;;2.10;0.47;;;15.10;1.00;;;;;;5033132;28;20049;-74
2022/09/17 11:19:46;;;;;;;2.53;0.40;;;15.10;1.00;;;;;;5031564;28;20033;-73
2022/09/17 11:22:27;;;;;;;1.60;0.28;;;15.00;1.00;;;;;;5032965;28;20029;-73
2022/09/17 11:25:16;;;;;;;1.50;0.40;;;15.60;1.00;;;;;;5033010;28;20022;-74
2022/09/17 11:28:01;;;;;;;7.13;1.00;;;15.70;1.00;;;;;;5032924;28;20049;-74
2022/09/17 11:30:54;;;;;;;4.78;0.43;;;15.40;1.00;;;;;;5032913;28;20033;-74
2022/09/17 11:33:26;;;;;;;4.63;0.45;;;15.40;1.00;;;;;;5032437;28;20042;-74
2022/09/17 11:35:59;;;;;;;4.03;0.50;;;15.70;1.00;;;;;;5033033;28;20050;-74
2022/09/17 11:38:49;;;;;;;5.57;0.60;;;15.60;1.00;;;;;;5032883;28;20114;-74
2022/09/17 11:41:20;;;;;;;2.33;0.70;;;15.60;1.00;;;;;;5032545;28;20075;-74
2022/09/17 11:44:01;;;;;;;8.38;1.38;;;15.40;1.00;;;;;;5032559;28;20385;-74
2022/09/17 11:46:33;;;;;;;5.78;0.82;;;15.40;1.00;;;;;;5032542;28;20029;-74
2022/09/17 11:49:27;;;;;;;6.22;2.13;;;15.80;1.00;;;;;;5032260;28;20048;-74
2022/09/17 11:51:58;;;;;;;4.75;0.77;;;16.10;1.00;;;;;;5032306;28;20020;-74
2022/09/17 11:54:32;;;;;;;4.63;0.40;;;15.80;1.00;;;;;;5032450;28;20381;-74
2022/09/17 11:57:21;;;;;;;13.18;2.00;;;15.90;1.00;;;;;;5032431;28;20049;-74
2022/09/17 12:00:02;;;;;;;5.50;1.20;;;15.80;1.00;;;;;;5032503;28;20104;-74
2022/09/17 12:02:50;;;;;;;9.18;1.20;;;15.30;1.00;;;;;;5032274;28;20472;-74
2022/09/17 12:05:25;;;;;;;9.95;1.00;;;14.90;1.00;;;;;;5032023;28;20045;-74
2022/09/17 12:08:13;;;;;;;7.50;1.10;;;14.80;1.00;;;;;;5031975;28;20652;-75
2022/09/17 12:10:45;;;;;;;5.47;0.98;;;15.00;1.00;;;;;;5032073;28;20026;-75
2022/09/17 12:13:27;;;;;;;6.65;0.73;;;15.30;1.00;;;;;;5031815;28;20017;-75
2022/09/17 12:16:15;;;;;;;3.33;0.85;;;15.60;1.00;;;;;;5029850;28;20091;-74
2022/09/17 12:18:50;;;;;;;4.57;1.25;;;15.50;1.00;;;;;;5031865;28;20049;-75
2022/09/17 12:21:21;;;;;;;2.88;0.50;;;15.40;1.00;;;;;;5031987;28;20036;-75
2022/09/17 12:24:11;;;;;;;3.70;0.75;;;15.50;1.00;;;;;;5031697;28;20428;-75
2022/09/17 12:26:37;;;;;;;;;;;15.70;1.00;;;;;;5032223;28;20026;-75
2022/09/17 12:29:07;;;;;;;6.43;0.70;;;15.80;1.00;;;;;;5031732;28;19912;-75
2022/09/17 12:32:04;;;;;;;3.20;0.65;;;15.90;1.00;;;;;;5031730;28;20060;-75
2022/09/17 12:34:57;;;;;;;3.80;0.68;;;15.90;1.00;;;;;;5030241;28;20073;-75
2022/09/17 12:37:44;;;;;;;3.58;0.70;;;15.90;1.00;;;;;;5031493;28;20031;-75
2022/09/17 12:40:40;;;;;;;2.05;0.38;;;16.00;1.00;;;;;;5031492;28;20025;-75
2022/09/17 12:43:27;;;;;;;8.20;0.40;;;16.60;1.00;;;;;;5031452;28;20383;-74
2022/09/17 12:46:40;;;;;;;2.92;0.40;;;16.50;1.00;;;;;;5031834;28;20078;-75
2022/09/17 12:49:37;;;;;;;3.55;0.55;;;16.30;1.00;;;;;;5020660;28;20038;-75
2022/09/17 12:52:30;;;;;;;2.35;0.80;;;16.30;1.00;;;;;;5011641;28;20054;-75
2022/09/17 12:55:24;;;;;;;4.10;0.70;;;16.00;1.00;;;;;;5011535;28;20061;-74
2022/09/17 12:58:20;;;;;;;4.20;0.60;;;15.60;1.00;;;;;;5013599;28;20037;-75
2022/09/17 13:00:52;;;;;;;3.05;0.47;;;15.70;1.00;;;;;;5031314;28;20017;-75
2022/09/17 13:03:56;;;;;;;6.22;0.88;;;15.60;1.00;;;;;;5031119;28;20025;-75
2022/09/17 13:06:45;;;;;;;3.08;0.50;;;14.70;1.00;;;;;;5031278;28;20018;-76
2022/09/17 13:09:40;;;;;;;3.25;0.88;;;13.70;1.00;;;;;;5031286;28;20079;-75
2022/09/17 13:12:05;;;;;;;0.73;0.32;;;13.20;1.00;;;;;;5031120;28;20026;-75
2022/09/17 13:14:34;;;;;;;4.75;0.40;;;12.90;1.00;;;;;;5031127;28;20071;-76
2022/09/17 13:17:18;;;;;;;3.72;0.70;;;12.90;1.00;;;;;;5031337;28;20026;-75
2022/09/17 13:19:58;;;;;;;2.30;0.30;;;12.80;1.00;;;;;;5011654;28;20025;-75
2022/09/17 13:22:32;;;;;;;1.52;0.57;;;13.30;1.00;;;;;;5011903;28;20105;-75